createdAt,value
2022-10-24T00:01:35.941Z,1.63
2022-10-24T00:06:37.428Z,1.80
2022-10-24T00:09:05.752Z,1.40
2022-10-24T00:11:33.887Z,1.53
2022-10-24T00:14:02.295Z,1.70
2022-10-24T00:16:35.719Z,2.00
2022-10-24T00:19:03.932Z,1.50
2022-10-24T00:21:32.124Z,1.80
2022-10-24T00:24:00.240Z,2.00
2022-10-24T00:26:30.074Z,1.80
2022-10-24T00:28:58.274Z,1.60
2022-10-24T00:31:26.562Z,1.80
2022-10-24T00:33:56.683Z,1.93
2022-10-24T00:36:25.663Z,1.63
2022-10-24T00:38:54.295Z,1.50
2022-10-24T00:41:25.711Z,1.50
2022-10-24T00:44:19.844Z,1.97
2022-10-24T00:46:51.058Z,1.67
2022-10-24T00:49:23.886Z,2.53
2022-10-24T00:51:57.819Z,1.70
2022-10-24T00:54:26.353Z,1.40
2022-10-24T00:57:03.677Z,2.33
2022-10-24T00:59:32.895Z,1.90
2022-10-24T01:02:01.198Z,2.23
2022-10-24T01:04:30.884Z,1.50
2022-10-24T01:07:17.270Z,1.90
2022-10-24T01:10:24.049Z,1.73
2022-10-24T01:13:00.257Z,1.97
2022-10-24T01:15:38.423Z,2.33
2022-10-24T01:18:13.720Z,2.00
2022-10-24T01:21:03.822Z,1.80
2022-10-24T01:23:56.067Z,2.20
2022-10-24T01:26:55.561Z,1.73
2022-10-24T01:29:47.551Z,1.60
2022-10-24T01:32:23.645Z,1.73
2022-10-24T01:35:01.342Z,2.30
2022-10-24T01:37:35.069Z,2.00
2022-10-24T01:40:10.087Z,2.53
2022-10-24T01:42:41.090Z,2.50
2022-10-24T01:45:14.201Z,1.90
2022-10-24T01:47:47.490Z,1.80
2022-10-24T01:50:17.477Z,1.73
2022-10-24T01:52:47.863Z,2.83
2022-10-24T01:55:16.279Z,2.47
2022-10-24T01:57:44.547Z,2.50
2022-10-24T02:00:19.022Z,2.33
2022-10-24T02:02:51.098Z,2.43
2022-10-24T02:05:22.636Z,2.03
2022-10-24T02:07:54.946Z,2.00
2022-10-24T02:10:27.469Z,2.00
2022-10-24T02:13:00.913Z,2.00
2022-10-24T02:15:34.018Z,2.10
2022-10-24T02:18:03.294Z,2.70
2022-10-24T02:20:36.695Z,2.17
2022-10-24T02:23:11.428Z,2.37
2022-10-24T02:28:20.037Z,2.23
2022-10-24T02:30:56.550Z,2.60
2022-10-24T02:33:27.629Z,2.47
2022-10-24T02:35:57.311Z,2.20
2022-10-24T02:38:29.676Z,2.30
2022-10-24T02:40:59.905Z,2.70
2022-10-24T02:43:29.476Z,3.50
2022-10-24T02:45:59.949Z,2.43
2022-10-24T02:48:31.431Z,2.73
2022-10-24T02:50:59.829Z,3.73
2022-10-24T02:53:29.150Z,2.30
2022-10-24T02:55:57.563Z,3.27
2022-10-24T02:58:25.833Z,2.67
2022-10-24T03:00:54.058Z,2.90
2022-10-24T03:03:23.556Z,3.20
2022-10-24T03:05:51.698Z,3.70
2022-10-24T03:08:19.864Z,2.73
2022-10-24T03:10:48.543Z,3.30
2022-10-24T03:13:16.734Z,2.90
2022-10-24T03:15:45.072Z,4.50
2022-10-24T03:18:13.242Z,3.53
2022-10-24T03:20:42.935Z,3.80
2022-10-24T03:23:11.694Z,3.57
2022-10-24T03:25:39.837Z,3.17
2022-10-24T03:28:07.962Z,3.50
2022-10-24T03:30:36.183Z,2.67
2022-10-24T03:33:04.339Z,3.30
2022-10-24T03:35:32.461Z,3.87
2022-10-24T03:38:02.032Z,3.90
2022-10-24T03:40:30.188Z,3.30
2022-10-24T03:42:58.343Z,4.23
2022-10-24T03:45:26.435Z,3.50
2022-10-24T03:47:54.632Z,3.77
2022-10-24T03:50:22.796Z,3.50
2022-10-24T03:52:50.955Z,3.40
2022-10-24T03:55:20.554Z,3.60
2022-10-24T03:57:48.766Z,3.53
2022-10-24T04:00:18.815Z,3.10
2022-10-24T04:02:47.442Z,4.00
2022-10-24T04:05:15.609Z,4.57
2022-10-24T04:07:44.001Z,3.30
2022-10-24T04:10:12.795Z,3.20
2022-10-24T04:12:42.457Z,4.77
2022-10-24T04:15:11.564Z,3.70
2022-10-24T04:17:39.798Z,3.83
2022-10-24T04:20:09.162Z,3.33
2022-10-24T04:22:37.376Z,3.10
2022-10-24T04:25:06.357Z,3.43
2022-10-24T04:27:36.589Z,2.90
2022-10-24T04:30:07.224Z,3.50
2022-10-24T04:32:35.466Z,3.87
2022-10-24T04:35:04.635Z,4.10
2022-10-24T04:37:32.832Z,2.80
2022-10-24T04:40:01.121Z,3.90
2022-10-24T04:42:29.319Z,3.50
2022-10-24T04:44:57.479Z,3.77
2022-10-24T04:47:27.084Z,3.10
2022-10-24T04:49:55.346Z,3.43
2022-10-24T04:52:23.454Z,4.23
2022-10-24T04:54:51.631Z,3.33
2022-10-24T04:57:19.807Z,3.93
2022-10-24T04:59:47.916Z,3.50
2022-10-24T05:02:16.110Z,3.30
2022-10-24T05:04:45.734Z,3.60
2022-10-24T05:07:13.875Z,3.90
2022-10-24T05:09:42.067Z,3.10
2022-10-24T05:12:10.271Z,3.60
2022-10-24T05:14:38.530Z,4.00
2022-10-24T05:17:06.646Z,3.50
2022-10-24T05:19:34.846Z,3.17
2022-10-24T05:22:06.094Z,3.47
2022-10-24T05:24:36.769Z,3.20
2022-10-24T05:27:05.095Z,3.23
2022-10-24T05:29:33.145Z,3.60
2022-10-24T05:32:01.195Z,3.10
2022-10-24T05:34:29.335Z,3.70
2022-10-24T05:36:57.476Z,3.30
2022-10-24T05:39:27.058Z,3.17
2022-10-24T05:41:55.432Z,3.30
2022-10-24T05:44:24.060Z,2.83
2022-10-24T05:46:52.887Z,3.50
2022-10-24T05:49:21.302Z,4.10
2022-10-24T05:51:49.401Z,3.70
2022-10-24T05:54:17.577Z,3.50
2022-10-24T05:56:47.198Z,3.67
2022-10-24T05:59:15.440Z,3.23
2022-10-24T06:01:43.724Z,3.50
2022-10-24T06:04:13.818Z,3.37
2022-10-24T06:06:44.313Z,3.50
2022-10-24T06:09:13.449Z,4.20
2022-10-24T06:11:42.489Z,3.90
2022-10-24T06:14:12.096Z,3.73
2022-10-24T06:16:40.247Z,4.50
2022-10-24T06:19:08.227Z,4.67
2022-10-24T06:21:36.251Z,4.40
2022-10-24T06:24:04.424Z,4.30
2022-10-24T06:26:32.551Z,4.70
2022-10-24T06:29:00.650Z,4.40
2022-10-24T06:31:30.092Z,4.90
2022-10-24T06:33:58.334Z,4.60
2022-10-24T06:36:29.293Z,4.90
2022-10-24T06:38:59.597Z,4.40
2022-10-24T06:41:27.803Z,4.97
2022-10-24T06:43:56.481Z,5.03
2022-10-24T06:46:24.664Z,4.90
2022-10-24T06:48:56.393Z,5.07
2022-10-24T06:51:25.038Z,5.40
2022-10-24T06:53:53.143Z,5.50
2022-10-24T06:56:21.325Z,5.20
2022-10-24T06:58:49.460Z,5.60
2022-10-24T07:01:20.539Z,5.13
2022-10-24T07:03:49.234Z,5.10
2022-10-24T07:06:20.746Z,5.33
2022-10-24T07:08:49.259Z,5.47
2022-10-24T07:11:17.294Z,5.70
2022-10-24T07:13:45.311Z,6.13
2022-10-24T07:16:13.389Z,6.60
2022-10-24T07:18:41.856Z,6.22
2022-10-24T07:21:12.247Z,6.10
2022-10-24T07:23:41.858Z,6.30
2022-10-24T07:26:12.497Z,6.90
2022-10-24T07:28:41.977Z,6.27
2022-10-24T07:31:10.697Z,6.10
2022-10-24T07:33:39.280Z,5.60
2022-10-24T07:36:08.082Z,5.60
2022-10-24T07:38:36.272Z,5.90
2022-10-24T07:41:07.207Z,6.47
2022-10-24T07:43:35.278Z,6.67
2022-10-24T07:46:07.363Z,6.63
2022-10-24T07:48:35.614Z,6.23
2022-10-24T07:51:07.220Z,7.60
2022-10-24T07:53:35.856Z,7.17
2022-10-24T07:56:09.352Z,6.10
2022-10-24T07:58:38.422Z,6.00
2022-10-24T08:01:07.991Z,6.50
2022-10-24T08:03:36.151Z,5.70
2022-10-24T08:06:06.570Z,5.97
2022-10-24T08:08:37.322Z,6.50
2022-10-24T08:11:10.478Z,5.83
2022-10-24T08:13:39.645Z,6.90
2022-10-24T08:16:09.113Z,6.07
2022-10-24T08:18:39.542Z,6.63
2022-10-24T08:21:09.459Z,6.07
2022-10-24T08:23:38.998Z,6.50
2022-10-24T08:26:08.185Z,6.20
2022-10-24T08:28:37.974Z,6.57
2022-10-24T08:31:08.010Z,6.27
2022-10-24T08:33:36.695Z,6.43
2022-10-24T08:36:07.044Z,7.60
2022-10-24T08:38:35.229Z,7.30
2022-10-24T08:41:03.452Z,8.90
2022-10-24T08:43:32.121Z,7.07
2022-10-24T08:46:11.727Z,6.40
2022-10-24T08:48:48.977Z,6.73
2022-10-24T08:51:28.034Z,7.67
2022-10-24T08:53:59.807Z,6.70
2022-10-24T08:56:33.133Z,6.67
2022-10-24T08:59:03.386Z,6.37
2022-10-24T09:01:39.021Z,6.30
2022-10-24T09:04:11.149Z,7.57
2022-10-24T09:06:39.443Z,6.20
2022-10-24T09:09:18.857Z,6.63
2022-10-24T09:11:52.058Z,7.13
2022-10-24T09:14:22.069Z,7.17
2022-10-24T09:16:55.178Z,7.50
2022-10-24T09:19:26.021Z,7.00
2022-10-24T09:21:55.703Z,6.60
2022-10-24T09:24:34.479Z,6.40
2022-10-24T09:27:04.454Z,6.97
2022-10-24T09:29:35.351Z,7.97
2022-10-24T09:32:05.356Z,7.20
2022-10-24T09:34:33.498Z,7.20
2022-10-24T09:37:01.665Z,7.17
2022-10-24T09:39:32.298Z,6.87
2022-10-24T09:42:01.784Z,7.30
2022-10-24T09:44:36.130Z,6.67
2022-10-24T09:47:09.319Z,7.23
2022-10-24T09:49:41.252Z,6.43
2022-10-24T09:52:18.475Z,7.20
2022-10-24T09:54:47.327Z,6.70
2022-10-24T09:57:17.846Z,6.90
2022-10-24T09:59:47.462Z,7.73
2022-10-24T10:02:28.261Z,7.30
2022-10-24T10:05:23.085Z,7.67
2022-10-24T10:07:52.934Z,7.40
2022-10-24T10:10:33.486Z,8.30
2022-10-24T10:13:05.814Z,8.40
2022-10-24T10:15:37.545Z,7.00
2022-10-24T10:18:25.081Z,7.40
2022-10-24T10:21:03.197Z,7.47
2022-10-24T10:23:34.092Z,7.13
2022-10-24T10:26:22.900Z,7.93
2022-10-24T10:28:57.839Z,7.50
2022-10-24T10:31:29.945Z,7.30
2022-10-24T10:34:18.831Z,7.10
2022-10-24T10:37:06.365Z,7.23
2022-10-24T10:39:55.382Z,6.80
2022-10-24T10:42:28.391Z,7.67
2022-10-24T10:45:08.841Z,7.87
2022-10-24T10:47:47.458Z,6.30
2022-10-24T10:50:29.725Z,5.70
2022-10-24T10:53:06.127Z,5.70
2022-10-24T10:55:46.750Z,5.97
2022-10-24T10:58:26.881Z,5.90
2022-10-24T11:01:03.856Z,5.40
2022-10-24T11:03:41.378Z,5.83
2022-10-24T11:06:29.802Z,5.10
2022-10-24T11:09:14.937Z,5.03
2022-10-24T11:11:47.144Z,6.43
2022-10-24T11:14:26.944Z,6.00
2022-10-24T11:17:01.943Z,6.10
2022-10-24T11:19:35.113Z,5.50
2022-10-24T11:22:08.283Z,6.37
2022-10-24T11:24:47.961Z,5.70
2022-10-24T11:27:24.246Z,5.90
2022-10-24T11:29:58.001Z,6.10
2022-10-24T11:32:33.692Z,6.10
2022-10-24T11:35:06.797Z,5.50
2022-10-24T11:37:40.961Z,5.93
2022-10-24T11:40:13.457Z,6.17
2022-10-24T11:42:48.980Z,6.03
2022-10-24T11:45:19.583Z,6.00
2022-10-24T11:47:55.619Z,6.00
2022-10-24T11:50:29.151Z,7.20
2022-10-24T11:53:03.705Z,6.23
2022-10-24T11:55:38.851Z,6.47
2022-10-24T11:58:13.270Z,7.30
2022-10-24T12:01:01.264Z,6.60
2022-10-24T12:03:57.407Z,6.17
2022-10-24T12:06:53.635Z,6.10
2022-10-24T12:09:36.695Z,5.93
2022-10-24T12:12:15.910Z,7.13
2022-10-24T12:14:55.359Z,6.33
2022-10-24T12:17:42.308Z,5.97
2022-10-24T12:20:15.984Z,6.03
2022-10-24T12:22:46.073Z,6.10
2022-10-24T12:25:23.826Z,5.80
2022-10-24T12:27:56.883Z,6.00
2022-10-24T12:30:27.305Z,6.23
2022-10-24T12:32:59.155Z,7.10
2022-10-24T12:35:47.900Z,6.00
2022-10-24T12:38:19.790Z,5.97
2022-10-24T12:40:55.583Z,5.67
2022-10-24T12:43:30.940Z,5.47
2022-10-24T12:46:01.497Z,5.50
2022-10-24T12:48:35.891Z,5.70
2022-10-24T12:51:28.465Z,5.17
2022-10-24T12:54:38.840Z,5.30
2022-10-24T12:57:26.452Z,6.17
2022-10-24T12:59:56.834Z,5.70
2022-10-24T13:02:41.559Z,5.50
2022-10-24T13:05:34.298Z,5.20
2022-10-24T13:08:15.194Z,4.57
2022-10-24T13:10:54.176Z,4.67
2022-10-24T13:14:06.015Z,4.70
2022-10-24T13:16:43.392Z,5.30
2022-10-24T13:19:17.274Z,5.20
2022-10-24T13:21:48.958Z,5.13
2022-10-24T13:24:34.000Z,5.57
2022-10-24T13:27:28.722Z,5.10
2022-10-24T13:30:24.306Z,5.20
2022-10-24T13:32:52.736Z,5.20
2022-10-24T13:35:26.141Z,5.30
2022-10-24T13:38:00.539Z,5.13
2022-10-24T13:40:32.844Z,4.70
2022-10-24T13:43:07.500Z,5.20
2022-10-24T13:45:45.936Z,5.07
2022-10-24T13:48:19.990Z,4.90
2022-10-24T13:50:52.035Z,4.70
2022-10-24T13:53:30.306Z,4.87
2022-10-24T13:56:03.786Z,4.70
2022-10-24T13:58:41.005Z,5.50
2022-10-24T14:01:25.233Z,4.77
2022-10-24T14:03:54.557Z,4.47
2022-10-24T14:06:27.118Z,4.97
2022-10-24T14:09:06.504Z,4.67
2022-10-24T14:11:35.634Z,5.23
2022-10-24T14:14:07.836Z,4.90
2022-10-24T14:16:38.945Z,4.83
2022-10-24T14:19:17.519Z,4.80
2022-10-24T14:21:47.414Z,5.30
2022-10-24T14:24:17.603Z,5.17
2022-10-24T14:26:46.604Z,4.70
2022-10-24T14:29:23.288Z,5.90
2022-10-24T14:31:59.464Z,5.63
2022-10-24T14:34:32.604Z,5.20
2022-10-24T14:37:07.613Z,5.20
2022-10-24T14:39:36.885Z,5.33
2022-10-24T14:42:05.517Z,4.83
2022-10-24T14:44:37.368Z,4.90
2022-10-24T14:47:23.023Z,4.73
2022-10-24T14:49:51.365Z,4.90
2022-10-24T14:52:25.034Z,4.73
2022-10-24T14:54:58.905Z,4.40
2022-10-24T14:57:28.215Z,4.43
2022-10-24T14:59:58.291Z,4.50
2022-10-24T15:02:31.150Z,4.13
2022-10-24T15:05:29.247Z,4.47
2022-10-24T15:08:21.075Z,4.37
2022-10-24T15:10:50.412Z,4.00
2022-10-24T15:13:22.250Z,3.90
2022-10-24T15:15:56.068Z,4.00
2022-10-24T15:18:27.204Z,3.87
2022-10-24T15:21:01.124Z,4.00
2022-10-24T15:23:31.878Z,4.17
2022-10-24T15:26:03.009Z,4.43
2022-10-24T15:28:46.849Z,4.77
2022-10-24T15:31:16.316Z,4.57
2022-10-24T15:33:46.040Z,5.07
2022-10-24T15:36:22.840Z,5.70
2022-10-24T15:38:55.879Z,5.10
2022-10-24T15:41:24.296Z,4.90
2022-10-24T15:43:52.504Z,5.20
2022-10-24T15:46:21.936Z,5.20
2022-10-24T15:48:51.747Z,4.90
2022-10-24T15:51:22.837Z,4.80
2022-10-24T15:53:53.240Z,4.73
2022-10-24T15:56:21.663Z,4.30
2022-10-24T15:58:50.916Z,5.23
2022-10-24T16:01:25.953Z,4.90
2022-10-24T16:03:56.394Z,4.80
2022-10-24T16:06:24.809Z,5.20
2022-10-24T16:08:53.376Z,5.03
2022-10-24T16:11:21.781Z,5.20
2022-10-24T16:13:50.204Z,4.47
2022-10-24T16:16:18.507Z,4.93
2022-10-24T16:18:46.682Z,4.20
2022-10-24T16:21:19.118Z,4.57
2022-10-24T16:23:48.535Z,4.50
2022-10-24T16:26:17.127Z,4.40
2022-10-24T16:28:45.409Z,4.60
2022-10-24T16:31:19.776Z,4.13
2022-10-24T16:33:48.450Z,4.27
2022-10-24T16:36:20.934Z,4.60
2022-10-24T16:38:55.420Z,4.60
2022-10-24T16:41:25.928Z,4.50
2022-10-24T16:43:56.510Z,4.40
2022-10-24T16:46:26.827Z,4.23
2022-10-24T16:48:55.674Z,4.00
2022-10-24T16:51:32.005Z,5.40
2022-10-24T16:54:01.307Z,4.20
2022-10-24T16:56:30.418Z,4.23
2022-10-24T16:58:58.798Z,4.17
2022-10-24T17:01:27.930Z,3.80
2022-10-24T17:03:56.427Z,4.33
2022-10-24T17:06:25.845Z,3.53
2022-10-24T17:08:53.994Z,3.80
2022-10-24T17:11:43.903Z,4.53
2022-10-24T17:14:10.445Z,4.50
2022-10-24T17:16:38.646Z,4.43
2022-10-24T17:19:15.715Z,4.10
2022-10-24T17:21:48.044Z,4.10
2022-10-24T17:24:20.085Z,4.10
2022-10-24T17:26:48.878Z,4.30
2022-10-24T17:29:25.182Z,4.00
2022-10-24T17:31:53.582Z,4.20
2022-10-24T17:34:21.995Z,3.73
2022-10-24T17:36:59.003Z,3.50
2022-10-24T17:39:31.735Z,4.40
2022-10-24T17:42:00.166Z,4.63
2022-10-24T17:44:28.806Z,3.97
2022-10-24T17:46:58.243Z,3.70
2022-10-24T17:49:26.640Z,3.80
2022-10-24T17:51:56.192Z,4.10
2022-10-24T17:54:27.019Z,4.20
2022-10-24T17:56:55.064Z,4.03
2022-10-24T17:59:23.172Z,3.97
2022-10-24T18:01:51.461Z,4.03
2022-10-24T18:04:19.570Z,4.33
2022-10-24T18:06:47.662Z,3.80
2022-10-24T18:09:17.068Z,3.63
2022-10-24T18:11:45.101Z,2.50
2022-10-24T18:14:13.122Z,2.13
2022-10-24T18:16:41.341Z,1.90
2022-10-24T18:19:09.450Z,1.80
2022-10-24T18:21:37.861Z,1.80
2022-10-24T18:24:08.044Z,1.80
2022-10-24T18:26:37.503Z,1.70
2022-10-24T18:29:05.978Z,1.97
2022-10-24T18:31:35.430Z,1.90
2022-10-24T18:34:06.262Z,1.90
2022-10-24T18:36:36.941Z,2.40
2022-10-24T18:39:05.445Z,3.23
2022-10-24T18:41:45.190Z,1.80
2022-10-24T18:44:25.708Z,2.40
2022-10-24T18:46:55.365Z,2.30
2022-10-24T18:49:23.930Z,2.30
2022-10-24T18:52:00.980Z,2.37
2022-10-24T18:54:30.903Z,2.10
2022-10-24T18:57:00.889Z,2.30
2022-10-24T18:59:30.877Z,2.20
2022-10-24T19:02:18.147Z,2.20
2022-10-24T19:04:52.431Z,2.60
2022-10-24T19:07:20.755Z,2.83
2022-10-24T19:09:49.288Z,3.43
2022-10-24T19:12:19.122Z,2.60
2022-10-24T19:14:47.759Z,2.80
2022-10-24T19:17:16.949Z,2.63
2022-10-24T19:19:45.090Z,2.50
2022-10-24T19:22:13.173Z,2.63
2022-10-24T19:24:41.263Z,2.50
2022-10-24T19:27:09.505Z,2.70
2022-10-24T19:29:39.148Z,2.40
2022-10-24T19:32:07.377Z,2.53
2022-10-24T19:34:35.491Z,2.40
2022-10-24T19:37:03.842Z,2.70
2022-10-24T19:39:33.947Z,3.10
2022-10-24T19:42:02.331Z,5.33
2022-10-24T19:44:30.341Z,3.30
2022-10-24T19:46:59.791Z,3.33
2022-10-24T19:49:27.857Z,3.67
2022-10-24T19:51:56.848Z,4.70
2022-10-24T19:54:25.017Z,2.97
2022-10-24T19:56:54.790Z,3.00
2022-10-24T19:59:23.202Z,2.80
2022-10-24T20:01:51.387Z,3.23
2022-10-24T20:04:20.950Z,3.20
2022-10-24T20:06:48.968Z,3.00
2022-10-24T20:09:17.004Z,2.90
2022-10-24T20:11:45.043Z,3.10
2022-10-24T20:14:13.136Z,3.97
2022-10-24T20:16:41.188Z,3.40
2022-10-24T20:19:09.209Z,4.30
2022-10-24T20:21:38.603Z,4.47
2022-10-24T20:24:07.639Z,3.90
2022-10-24T20:26:35.712Z,3.80
2022-10-24T20:29:04.506Z,4.10
2022-10-24T20:31:35.019Z,4.03
2022-10-24T20:34:09.536Z,3.97
2022-10-24T20:36:40.466Z,3.90
2022-10-24T20:39:09.803Z,3.97
2022-10-24T20:41:38.624Z,4.27
2022-10-24T20:44:07.498Z,5.27
2022-10-24T20:46:35.810Z,4.10
2022-10-24T20:49:04.225Z,4.00
2022-10-24T20:51:32.349Z,3.93
2022-10-24T20:54:01.940Z,3.90
2022-10-24T20:56:30.072Z,3.90
2022-10-24T20:58:58.083Z,4.00
2022-10-24T21:01:28.354Z,3.80
2022-10-24T21:03:57.568Z,3.70
2022-10-24T21:06:26.889Z,3.83
2022-10-24T21:08:57.562Z,3.90
2022-10-24T21:11:29.294Z,3.70
2022-10-24T21:13:59.469Z,3.80
2022-10-24T21:16:28.664Z,3.90
2022-10-24T21:18:57.851Z,3.60
2022-10-24T21:21:26.821Z,3.20
2022-10-24T21:24:00.844Z,3.50
2022-10-24T21:26:33.733Z,3.10
2022-10-24T21:29:09.204Z,2.90
2022-10-24T21:31:50.105Z,2.97
2022-10-24T21:34:18.621Z,3.00
2022-10-24T21:36:46.922Z,2.90
2022-10-24T21:39:15.665Z,2.40
2022-10-24T21:41:45.627Z,2.60
2022-10-24T21:44:14.570Z,2.60
2022-10-24T21:46:42.833Z,2.57
2022-10-24T21:49:11.532Z,2.60
2022-10-24T21:51:41.286Z,2.60
2022-10-24T21:54:16.607Z,2.60
2022-10-24T21:56:46.024Z,2.60
2022-10-24T21:59:16.258Z,2.57
2022-10-24T22:01:46.507Z,2.87
2022-10-24T22:04:15.533Z,2.80
2022-10-24T22:06:44.625Z,2.80
2022-10-24T22:09:15.323Z,3.10
2022-10-24T22:11:45.279Z,3.50
2022-10-24T22:14:15.172Z,3.47
2022-10-24T22:16:44.125Z,3.30
2022-10-24T22:19:13.952Z,3.50
2022-10-24T22:21:43.749Z,3.70
2022-10-24T22:24:13.648Z,3.60
2022-10-24T22:26:42.358Z,3.67
2022-10-24T22:29:14.765Z,3.40
2022-10-24T22:31:43.269Z,3.73
2022-10-24T22:34:16.092Z,3.50
2022-10-24T22:36:53.899Z,3.23
2022-10-24T22:39:24.461Z,3.90
2022-10-24T22:41:53.547Z,2.90
2022-10-24T22:44:23.956Z,3.10
2022-10-24T22:47:30.632Z,3.10
2022-10-24T22:50:06.162Z,3.33
2022-10-24T22:52:34.797Z,3.50
2022-10-24T22:55:04.046Z,2.90
2022-10-24T22:57:33.159Z,3.13
2022-10-24T23:00:02.993Z,3.50
2022-10-24T23:02:36.478Z,3.53
2022-10-24T23:05:07.869Z,3.50
2022-10-24T23:07:47.043Z,3.07
2022-10-24T23:10:20.058Z,3.20
2022-10-24T23:12:49.206Z,3.37
2022-10-24T23:15:21.070Z,3.00
2022-10-24T23:17:50.456Z,3.20
2022-10-24T23:20:27.256Z,3.43
2022-10-24T23:23:09.199Z,3.33
2022-10-24T23:25:49.898Z,3.10
2022-10-24T23:28:25.232Z,3.27
2022-10-24T23:30:55.322Z,3.23
2022-10-24T23:33:27.332Z,3.03
2022-10-24T23:35:59.294Z,2.90
2022-10-24T23:38:28.138Z,3.00
2022-10-24T23:40:56.933Z,2.90
2022-10-24T23:43:25.618Z,2.90
2022-10-24T23:45:59.504Z,3.07
2022-10-24T23:48:42.256Z,2.70
2022-10-24T23:51:15.019Z,2.70
2022-10-24T23:53:50.281Z,2.67
2022-10-24T23:56:20.191Z,2.70
2022-10-24T23:58:48.720Z,2.77
